Nawabshah, Pakistan
Current Conditions -  °F | °C
As of 3:55 PM on Saturday 25 Oct 2014 (Local Time) from OPNH Reporting Station
Haze Haze  
Wind Chill: 100°   Ceiling: Unl
Heat Index: 100°   Visibility: 3mi
Dew Point: 48°   Wind: 3mph
Humidity: 17%   Direction: 360°N
Pressure: 29.8"   Gusts: NA
Location:  26.24°N, 68.4°E
Report Text: OPNH 251055Z 36003KT 5000 HZ NSC 38/09 Q1009
Loading
Personal Weather Stations






























Interactive Weather Map
Tropical Storm Tracking
New forecast layout! Learn more

10-Day Weather Forecast

Advertisements
Track Severe Weather on mobile